sensor_id;sensor_type;location;lat;lon;timestamp;pressure;altitude;pressure_sealevel;temperature;humidity
31183;BME280;17813;0.000;0.000;2022-07-23T00:02:09;99467.00;;;21.26;56.48
31183;BME280;17813;0.000;0.000;2022-07-23T00:04:36;99474.94;;;21.28;56.41
31183;BME280;17813;0.000;0.000;2022-07-23T00:07:03;99469.53;;;21.28;56.48
31183;BME280;17813;0.000;0.000;2022-07-23T00:09:30;99461.09;;;21.23;56.78
31183;BME280;17813;0.000;0.000;2022-07-23T00:11:57;99461.53;;;21.10;57.46
31183;BME280;17813;0.000;0.000;2022-07-23T00:14:24;99450.69;;;21.02;57.56
31183;BME280;17813;0.000;0.000;2022-07-23T00:16:51;99453.56;;;21.00;57.66
31183;BME280;17813;0.000;0.000;2022-07-23T00:19:18;99448.16;;;21.00;57.49
31183;BME280;17813;0.000;0.000;2022-07-23T00:21:45;99463.19;;;21.03;57.50
31183;BME280;17813;0.000;0.000;2022-07-23T00:24:12;99467.06;;;21.08;57.42
31183;BME280;17813;0.000;0.000;2022-07-23T00:26:39;99463.22;;;21.11;57.53
31183;BME280;17813;0.000;0.000;2022-07-23T00:29:06;99460.19;;;21.14;57.48
31183;BME280;17813;0.000;0.000;2022-07-23T00:31:33;99452.63;;;21.17;57.24
31183;BME280;17813;0.000;0.000;2022-07-23T00:34:00;99455.31;;;21.17;57.45
31183;BME280;17813;0.000;0.000;2022-07-23T00:36:30;99452.56;;;21.01;58.22
31183;BME280;17813;0.000;0.000;2022-07-23T00:39:00;99457.53;;;20.88;58.58
31183;BME280;17813;0.000;0.000;2022-07-23T00:41:27;99439.69;;;20.87;58.36
31183;BME280;17813;0.000;0.000;2022-07-23T00:44:14;99440.00;;;20.84;58.93
31183;BME280;17813;0.000;0.000;2022-07-23T00:46:53;99430.31;;;20.73;59.29
31183;BME280;17813;0.000;0.000;2022-07-23T00:49:22;99425.09;;;20.72;59.15
31183;BME280;17813;0.000;0.000;2022-07-23T00:51:50;99416.28;;;20.62;59.85
31183;BME280;17813;0.000;0.000;2022-07-23T00:54:22;99415.88;;;20.48;59.98
31183;BME280;17813;0.000;0.000;2022-07-23T00:56:49;99414.75;;;20.59;59.33
31183;BME280;17813;0.000;0.000;2022-07-23T00:59:16;99409.41;;;20.67;59.46
31183;BME280;17813;0.000;0.000;2022-07-23T01:01:43;99403.84;;;20.69;59.35
31183;BME280;17813;0.000;0.000;2022-07-23T01:04:16;99392.38;;;20.67;59.20
31183;BME280;17813;0.000;0.000;2022-07-23T01:06:44;99384.94;;;20.61;59.41
31183;BME280;17813;0.000;0.000;2022-07-23T01:09:14;99382.00;;;20.46;60.38
31183;BME280;17813;0.000;0.000;2022-07-23T01:11:42;99379.25;;;20.38;60.77
31183;BME280;17813;0.000;0.000;2022-07-23T01:14:19;99374.84;;;20.37;60.48
31183;BME280;17813;0.000;0.000;2022-07-23T01:16:48;99374.16;;;20.35;60.71
31183;BME280;17813;0.000;0.000;2022-07-23T01:19:15;99382.72;;;20.30;61.08
31183;BME280;17813;0.000;0.000;2022-07-23T01:21:46;99382.41;;;20.33;60.59
31183;BME280;17813;0.000;0.000;2022-07-23T01:24:14;99366.53;;;20.22;60.86
31183;BME280;17813;0.000;0.000;2022-07-23T01:26:45;99372.75;;;20.22;60.73
31183;BME280;17813;0.000;0.000;2022-07-23T01:29:13;99364.66;;;20.22;61.01
31183;BME280;17813;0.000;0.000;2022-07-23T01:31:41;99359.81;;;20.26;60.75
31183;BME280;17813;0.000;0.000;2022-07-23T01:34:09;99356.84;;;20.37;60.19
31183;BME280;17813;0.000;0.000;2022-07-23T01:36:37;99355.84;;;20.38;60.49
31183;BME280;17813;0.000;0.000;2022-07-23T01:39:05;99355.84;;;20.38;60.79
31183;BME280;17813;0.000;0.000;2022-07-23T01:41:37;99348.84;;;20.45;60.38
31183;BME280;17813;0.000;0.000;2022-07-23T01:44:04;99344.34;;;20.54;60.23
31183;BME280;17813;0.000;0.000;2022-07-23T01:46:31;99341.50;;;20.64;59.96
31183;BME280;17813;0.000;0.000;2022-07-23T01:48:58;99336.97;;;20.64;60.17
31183;BME280;17813;0.000;0.000;2022-07-23T01:51:25;99345.91;;;20.65;60.13
31183;BME280;17813;0.000;0.000;2022-07-23T01:53:55;99345.16;;;20.46;61.02
31183;BME280;17813;0.000;0.000;2022-07-23T01:56:21;99342.94;;;20.42;61.02
31183;BME280;17813;0.000;0.000;2022-07-23T01:58:49;99352.06;;;20.49;60.82
31183;BME280;17813;0.000;0.000;2022-07-23T02:01:18;99342.81;;;20.51;60.72
31183;BME280;17813;0.000;0.000;2022-07-23T02:03:46;99340.78;;;20.53;60.51
31183;BME280;17813;0.000;0.000;2022-07-23T02:06:13;99342.84;;;20.60;60.38
31183;BME280;17813;0.000;0.000;2022-07-23T02:08:39;99345.53;;;20.60;60.45
31183;BME280;17813;0.000;0.000;2022-07-23T02:11:06;99343.13;;;20.48;60.99
31183;BME280;17813;0.000;0.000;2022-07-23T02:13:34;99341.97;;;20.51;60.69
31183;BME280;17813;0.000;0.000;2022-07-23T02:16:01;99347.56;;;20.58;60.62
31183;BME280;17813;0.000;0.000;2022-07-23T02:18:28;99341.69;;;20.62;60.41
31183;BME280;17813;0.000;0.000;2022-07-23T02:20:55;99347.91;;;20.63;60.54
31183;BME280;17813;0.000;0.000;2022-07-23T02:23:22;99350.72;;;20.53;61.09
31183;BME280;17813;0.000;0.000;2022-07-23T02:25:48;99354.22;;;20.45;61.11
31183;BME280;17813;0.000;0.000;2022-07-23T02:28:15;99356.59;;;20.48;61.11
31183;BME280;17813;0.000;0.000;2022-07-23T02:30:42;99358.31;;;20.58;60.73
31183;BME280;17813;0.000;0.000;2022-07-23T02:33:09;99372.53;;;20.68;60.34
31183;BME280;17813;0.000;0.000;2022-07-23T02:35:36;99374.03;;;20.70;60.38
31183;BME280;17813;0.000;0.000;2022-07-23T02:38:03;99388.03;;;20.74;60.19
31183;BME280;17813;0.000;0.000;2022-07-23T02:40:31;99401.31;;;20.67;60.63
31183;BME280;17813;0.000;0.000;2022-07-23T02:42:58;99405.38;;;20.71;60.56
31183;BME280;17813;0.000;0.000;2022-07-23T02:45:25;99400.66;;;20.73;60.59
31183;BME280;17813;0.000;0.000;2022-07-23T02:47:52;99393.06;;;20.69;60.71
31183;BME280;17813;0.000;0.000;2022-07-23T02:50:19;99388.31;;;20.63;60.85
31183;BME280;17813;0.000;0.000;2022-07-23T02:52:46;99383.94;;;20.62;60.90
31183;BME280;17813;0.000;0.000;2022-07-23T02:55:13;99382.38;;;20.51;61.25
31183;BME280;17813;0.000;0.000;2022-07-23T02:57:40;99370.75;;;20.50;61.04
31183;BME280;17813;0.000;0.000;2022-07-23T03:00:08;99366.88;;;20.53;61.02
31183;BME280;17813;0.000;0.000;2022-07-23T03:02:35;99362.19;;;20.55;60.65
31183;BME280;17813;0.000;0.000;2022-07-23T03:05:02;99355.97;;;20.54;60.73
31183;BME280;17813;0.000;0.000;2022-07-23T03:07:32;99360.28;;;20.47;60.95
31183;BME280;17813;0.000;0.000;2022-07-23T03:10:11;99356.63;;;20.31;61.51
31183;BME280;17813;0.000;0.000;2022-07-23T03:12:38;99351.56;;;20.28;61.56
31183;BME280;17813;0.000;0.000;2022-07-23T03:15:05;99351.72;;;20.26;61.60
31183;BME280;17813;0.000;0.000;2022-07-23T03:17:32;99346.97;;;20.20;61.75
31183;BME280;17813;0.000;0.000;2022-07-23T03:19:59;99333.53;;;20.20;61.56
31183;BME280;17813;0.000;0.000;2022-07-23T03:22:26;99334.38;;;20.20;61.34
31183;BME280;17813;0.000;0.000;2022-07-23T03:24:53;99321.69;;;20.13;61.77
31183;BME280;17813;0.000;0.000;2022-07-23T03:27:31;99313.72;;;20.03;61.91
31183;BME280;17813;0.000;0.000;2022-07-23T03:29:59;99312.88;;;20.03;61.95
31183;BME280;17813;0.000;0.000;2022-07-23T03:32:26;99307.81;;;20.00;62.00
31183;BME280;17813;0.000;0.000;2022-07-23T03:34:53;99310.00;;;19.96;62.20
31183;BME280;17813;0.000;0.000;2022-07-23T03:37:21;99322.91;;;19.92;62.40
31183;BME280;17813;0.000;0.000;2022-07-23T03:39:48;99330.84;;;19.94;62.13
31183;BME280;17813;0.000;0.000;2022-07-23T03:42:15;99348.97;;;19.92;62.36
31183;BME280;17813;0.000;0.000;2022-07-23T03:44:43;99351.53;;;19.94;62.13
31183;BME280;17813;0.000;0.000;2022-07-23T03:47:10;99373.38;;;19.90;62.64
31183;BME280;17813;0.000;0.000;2022-07-23T03:49:37;99369.59;;;19.83;62.87
31183;BME280;17813;0.000;0.000;2022-07-23T03:52:04;99377.31;;;19.78;63.37
31183;BME280;17813;0.000;0.000;2022-07-23T03:54:31;99401.00;;;19.75;63.47
31183;BME280;17813;0.000;0.000;2022-07-23T03:56:58;99464.56;;;19.76;63.50
31183;BME280;17813;0.000;0.000;2022-07-23T03:59:25;99484.94;;;19.78;63.61
31183;BME280;17813;0.000;0.000;2022-07-23T04:01:52;99462.19;;;19.73;63.82
31183;BME280;17813;0.000;0.000;2022-07-23T04:04:19;99446.56;;;19.76;63.36
31183;BME280;17813;0.000;0.000;2022-07-23T04:06:46;99451.56;;;19.71;63.12
31183;BME280;17813;0.000;0.000;2022-07-23T04:09:13;99449.19;;;19.68;63.10
31183;BME280;17813;0.000;0.000;2022-07-23T04:11:45;99430.03;;;19.53;63.14
31183;BME280;17813;0.000;0.000;2022-07-23T04:14:13;99416.75;;;19.52;63.08
31183;BME280;17813;0.000;0.000;2022-07-23T04:16:39;99420.31;;;19.43;63.38
31183;BME280;17813;0.000;0.000;2022-07-23T04:19:06;99426.00;;;19.40;63.24
31183;BME280;17813;0.000;0.000;2022-07-23T04:21:33;99416.09;;;19.40;62.92
31183;BME280;17813;0.000;0.000;2022-07-23T04:24:00;99412.22;;;19.25;63.12
31183;BME280;17813;0.000;0.000;2022-07-23T04:26:27;99405.63;;;19.19;63.42
31183;BME280;17813;0.000;0.000;2022-07-23T04:28:54;99411.00;;;19.19;63.35
31183;BME280;17813;0.000;0.000;2022-07-23T04:31:21;99402.94;;;19.19;63.35
31183;BME280;17813;0.000;0.000;2022-07-23T04:33:48;99408.41;;;19.27;63.05
31183;BME280;17813;0.000;0.000;2022-07-23T04:36:18;99400.56;;;19.34;62.66
31183;BME280;17813;0.000;0.000;2022-07-23T04:38:47;99406.84;;;19.52;61.82
31183;BME280;17813;0.000;0.000;2022-07-23T04:41:14;99402.75;;;19.66;61.54
31183;BME280;17813;0.000;0.000;2022-07-23T04:43:41;99398.00;;;19.78;61.30
31183;BME280;17813;0.000;0.000;2022-07-23T04:46:07;99400.97;;;19.92;60.94
31183;BME280;17813;0.000;0.000;2022-07-23T04:48:34;99398.66;;;19.98;60.71
31183;BME280;17813;0.000;0.000;2022-07-23T04:51:01;99398.72;;;20.06;60.55
31183;BME280;17813;0.000;0.000;2022-07-23T04:53:28;99399.63;;;20.14;60.34
31183;BME280;17813;0.000;0.000;2022-07-23T04:55:55;99405.63;;;20.08;60.08
31183;BME280;17813;0.000;0.000;2022-07-23T04:58:23;99426.16;;;20.09;59.81
31183;BME280;17813;0.000;0.000;2022-07-23T05:00:50;99444.78;;;20.03;59.68
31183;BME280;17813;0.000;0.000;2022-07-23T05:03:17;99442.25;;;20.01;59.74
31183;BME280;17813;0.000;0.000;2022-07-23T05:05:45;99422.88;;;19.98;59.95
31183;BME280;17813;0.000;0.000;2022-07-23T05:08:11;99411.09;;;19.99;59.86
31183;BME280;17813;0.000;0.000;2022-07-23T05:10:38;99404.94;;;20.06;59.88
31183;BME280;17813;0.000;0.000;2022-07-23T05:13:05;99409.06;;;20.18;59.62
31183;BME280;17813;0.000;0.000;2022-07-23T05:15:33;99403.25;;;20.31;58.97
31183;BME280;17813;0.000;0.000;2022-07-23T05:18:01;99400.34;;;20.42;58.50
31183;BME280;17813;0.000;0.000;2022-07-23T05:20:28;99399.91;;;20.55;58.28
31183;BME280;17813;0.000;0.000;2022-07-23T05:22:55;99396.53;;;20.53;57.90
31183;BME280;17813;0.000;0.000;2022-07-23T05:25:22;99388.75;;;20.50;57.95
31183;BME280;17813;0.000;0.000;2022-07-23T05:27:49;99384.53;;;20.47;57.87
31183;BME280;17813;0.000;0.000;2022-07-23T05:30:17;99386.94;;;20.33;58.03
31183;BME280;17813;0.000;0.000;2022-07-23T05:32:44;99384.69;;;20.20;58.14
31183;BME280;17813;0.000;0.000;2022-07-23T05:35:11;99399.50;;;20.24;57.84
31183;BME280;17813;0.000;0.000;2022-07-23T05:37:38;99403.38;;;20.21;58.05
31183;BME280;17813;0.000;0.000;2022-07-23T05:40:08;99410.13;;;20.26;57.99
31183;BME280;17813;0.000;0.000;2022-07-23T05:42:38;99411.88;;;20.35;58.10
31183;BME280;17813;0.000;0.000;2022-07-23T05:45:06;99413.50;;;20.45;58.28
31183;BME280;17813;0.000;0.000;2022-07-23T05:47:49;99432.03;;;20.48;57.74
31183;BME280;17813;0.000;0.000;2022-07-23T05:50:16;99440.19;;;20.65;57.56
31183;BME280;17813;0.000;0.000;2022-07-23T05:52:44;99435.38;;;20.76;56.95
31183;BME280;17813;0.000;0.000;2022-07-23T05:55:21;99441.63;;;20.77;56.66
31183;BME280;17813;0.000;0.000;2022-07-23T05:57:50;99455.09;;;21.03;56.52
31183;BME280;17813;0.000;0.000;2022-07-23T06:00:17;99463.25;;;21.19;55.73
31183;BME280;17813;0.000;0.000;2022-07-23T06:02:44;99466.72;;;21.45;55.36
31183;BME280;17813;0.000;0.000;2022-07-23T06:05:12;99466.25;;;21.58;54.86
31183;BME280;17813;0.000;0.000;2022-07-23T06:07:39;99468.66;;;21.69;54.53
31183;BME280;17813;0.000;0.000;2022-07-23T06:10:06;99459.03;;;21.67;54.06
31183;BME280;17813;0.000;0.000;2022-07-23T06:12:37;99461.06;;;21.81;54.12
31183;BME280;17813;0.000;0.000;2022-07-23T06:15:04;99447.13;;;22.10;53.49
31183;BME280;17813;0.000;0.000;2022-07-23T06:17:32;99442.38;;;22.12;52.76
31183;BME280;17813;0.000;0.000;2022-07-23T06:20:02;99440.00;;;22.33;52.82
31183;BME280;17813;0.000;0.000;2022-07-23T06:22:29;99443.84;;;22.55;52.34
31183;BME280;17813;0.000;0.000;2022-07-23T06:24:56;99436.19;;;22.91;52.16
31183;BME280;17813;0.000;0.000;2022-07-23T06:27:23;99456.09;;;23.37;51.50
31183;BME280;17813;0.000;0.000;2022-07-23T06:29:50;99454.22;;;23.54;50.48
31183;BME280;17813;0.000;0.000;2022-07-23T06:32:17;99450.31;;;23.49;50.26
31183;BME280;17813;0.000;0.000;2022-07-23T06:34:43;99433.91;;;23.11;50.00
31183;BME280;17813;0.000;0.000;2022-07-23T06:37:10;99434.31;;;22.92;50.33
31183;BME280;17813;0.000;0.000;2022-07-23T06:39:38;99449.38;;;22.86;50.99
31183;BME280;17813;0.000;0.000;2022-07-23T06:42:05;99448.34;;;22.79;51.41
31183;BME280;17813;0.000;0.000;2022-07-23T06:44:32;99443.03;;;22.38;51.65
31183;BME280;17813;0.000;0.000;2022-07-23T06:47:00;99454.03;;;22.12;51.95
31183;BME280;17813;0.000;0.000;2022-07-23T06:49:27;99456.56;;;22.06;52.76
31183;BME280;17813;0.000;0.000;2022-07-23T06:51:53;99452.47;;;21.86;53.95
31183;BME280;17813;0.000;0.000;2022-07-23T06:54:20;99455.50;;;21.82;54.06
31183;BME280;17813;0.000;0.000;2022-07-23T06:56:47;99465.81;;;21.87;54.82
31183;BME280;17813;0.000;0.000;2022-07-23T06:59:15;99461.97;;;22.06;54.68
31183;BME280;17813;0.000;0.000;2022-07-23T07:01:43;99449.44;;;22.54;53.13
31183;BME280;17813;0.000;0.000;2022-07-23T07:04:11;99454.91;;;23.40;51.94
31183;BME280;17813;0.000;0.000;2022-07-23T07:06:41;99441.88;;;24.20;49.12
31183;BME280;17813;0.000;0.000;2022-07-23T07:09:08;99441.06;;;25.16;47.19
31183;BME280;17813;0.000;0.000;2022-07-23T07:11:37;99442.63;;;25.98;45.59
31183;BME280;17813;0.000;0.000;2022-07-23T07:14:05;99443.50;;;26.19;43.38
31183;BME280;17813;0.000;0.000;2022-07-23T07:16:35;99438.84;;;26.35;42.73
31183;BME280;17813;0.000;0.000;2022-07-23T07:19:03;99443.09;;;26.22;43.74
31183;BME280;17813;0.000;0.000;2022-07-23T07:21:31;99443.84;;;25.74;44.74
31183;BME280;17813;0.000;0.000;2022-07-23T07:23:58;99439.22;;;25.53;45.34
31183;BME280;17813;0.000;0.000;2022-07-23T07:26:25;99432.84;;;25.10;45.98
31183;BME280;17813;0.000;0.000;2022-07-23T07:28:53;99455.75;;;24.78;46.77
31183;BME280;17813;0.000;0.000;2022-07-23T07:31:20;99477.22;;;24.64;47.11
31183;BME280;17813;0.000;0.000;2022-07-23T07:33:46;99481.59;;;24.51;47.17
31183;BME280;17813;0.000;0.000;2022-07-23T07:36:14;99468.19;;;24.34;47.84
31183;BME280;17813;0.000;0.000;2022-07-23T07:38:41;99469.78;;;24.29;48.33
31183;BME280;17813;0.000;0.000;2022-07-23T07:41:08;99478.13;;;24.19;48.82
31183;BME280;17813;0.000;0.000;2022-07-23T07:43:37;99462.41;;;24.15;48.41
31183;BME280;17813;0.000;0.000;2022-07-23T07:46:04;99462.28;;;24.08;48.50
31183;BME280;17813;0.000;0.000;2022-07-23T07:48:32;99472.34;;;23.99;50.34
31183;BME280;17813;0.000;0.000;2022-07-23T07:50:59;99483.00;;;24.01;51.30
31183;BME280;17813;0.000;0.000;2022-07-23T07:53:26;99485.16;;;24.05;52.59
31183;BME280;17813;0.000;0.000;2022-07-23T07:55:53;99480.44;;;24.30;52.85
31183;BME280;17813;0.000;0.000;2022-07-23T07:58:20;99476.88;;;24.67;52.01
31183;BME280;17813;0.000;0.000;2022-07-23T08:00:47;99469.16;;;25.09;50.65
31183;BME280;17813;0.000;0.000;2022-07-23T08:03:14;99472.78;;;25.30;49.34
31183;BME280;17813;0.000;0.000;2022-07-23T08:05:41;99463.66;;;25.53;49.08
31183;BME280;17813;0.000;0.000;2022-07-23T08:08:09;99458.47;;;25.94;48.94
31183;BME280;17813;0.000;0.000;2022-07-23T08:10:41;99471.66;;;26.12;47.79
31183;BME280;17813;0.000;0.000;2022-07-23T08:13:13;99470.34;;;26.08;46.48
31183;BME280;17813;0.000;0.000;2022-07-23T08:15:44;99484.47;;;26.18;46.96
31183;BME280;17813;0.000;0.000;2022-07-23T08:18:12;99491.19;;;26.43;47.19
31183;BME280;17813;0.000;0.000;2022-07-23T08:20:39;99487.19;;;27.77;44.79
31183;BME280;17813;0.000;0.000;2022-07-23T08:23:07;99483.66;;;29.35;41.04
31183;BME280;17813;0.000;0.000;2022-07-23T08:25:39;99500.59;;;30.08;38.34
31183;BME280;17813;0.000;0.000;2022-07-23T08:28:13;99500.38;;;30.66;37.06
31183;BME280;17813;0.000;0.000;2022-07-23T08:30:42;99500.97;;;30.93;36.36
31183;BME280;17813;0.000;0.000;2022-07-23T08:33:19;99508.56;;;31.16;37.31
31183;BME280;17813;0.000;0.000;2022-07-23T08:35:51;99504.38;;;31.87;34.75
31183;BME280;17813;0.000;0.000;2022-07-23T08:38:21;99505.91;;;32.13;34.47
31183;BME280;17813;0.000;0.000;2022-07-23T08:40:50;99494.72;;;32.91;34.01
31183;BME280;17813;0.000;0.000;2022-07-23T08:43:24;99500.13;;;32.33;32.28
31183;BME280;17813;0.000;0.000;2022-07-23T08:45:54;99496.47;;;31.79;33.70
31183;BME280;17813;0.000;0.000;2022-07-23T08:48:27;99492.53;;;31.13;34.36
31183;BME280;17813;0.000;0.000;2022-07-23T08:50:57;99497.91;;;30.83;34.87
31183;BME280;17813;0.000;0.000;2022-07-23T08:53:26;99520.00;;;30.63;35.20
31183;BME280;17813;0.000;0.000;2022-07-23T08:55:56;99518.41;;;30.18;35.64
31183;BME280;17813;0.000;0.000;2022-07-23T08:58:25;99520.84;;;30.64;36.06
31183;BME280;17813;0.000;0.000;2022-07-23T09:00:53;99517.13;;;31.45;34.52
31183;BME280;17813;0.000;0.000;2022-07-23T09:03:25;99508.75;;;31.21;33.81
31183;BME280;17813;0.000;0.000;2022-07-23T09:05:54;99513.81;;;30.43;34.88
31183;BME280;17813;0.000;0.000;2022-07-23T09:08:26;99508.16;;;30.38;35.65
31183;BME280;17813;0.000;0.000;2022-07-23T09:11:05;99509.09;;;30.25;35.51
31183;BME280;17813;0.000;0.000;2022-07-23T09:13:42;99515.13;;;30.34;35.11
31183;BME280;17813;0.000;0.000;2022-07-23T09:16:27;99508.22;;;29.93;35.99
31183;BME280;17813;0.000;0.000;2022-07-23T09:19:04;99503.06;;;29.72;35.77
31183;BME280;17813;0.000;0.000;2022-07-23T09:24:04;99502.53;;;29.50;36.37
31183;BME280;17813;0.000;0.000;2022-07-23T09:26:44;99524.66;;;29.22;37.04
31183;BME280;17813;0.000;0.000;2022-07-23T09:29:19;99516.47;;;29.29;37.08
31183;BME280;17813;0.000;0.000;2022-07-23T09:34:23;99519.22;;;28.56;37.78
31183;BME280;17813;0.000;0.000;2022-07-23T09:36:54;99525.44;;;28.04;38.46
31183;BME280;17813;0.000;0.000;2022-07-23T09:39:32;99525.81;;;27.88;38.84
31183;BME280;17813;0.000;0.000;2022-07-23T09:44:49;99533.78;;;27.48;39.92
31183;BME280;17813;0.000;0.000;2022-07-23T09:47:17;99528.91;;;27.37;39.80
31183;BME280;17813;0.000;0.000;2022-07-23T09:52:29;99538.66;;;27.18;40.07
31183;BME280;17813;0.000;0.000;2022-07-23T09:55:01;99531.78;;;27.22;39.95
31183;BME280;17813;0.000;0.000;2022-07-23T09:57:29;99533.78;;;27.07;40.29
31183;BME280;17813;0.000;0.000;2022-07-23T10:00:02;99536.97;;;26.89;40.65
31183;BME280;17813;0.000;0.000;2022-07-23T10:02:38;99528.44;;;26.71;40.84
31183;BME280;17813;0.000;0.000;2022-07-23T10:05:06;99545.63;;;26.71;41.29
31183;BME280;17813;0.000;0.000;2022-07-23T10:07:36;99537.78;;;26.62;41.63
31183;BME280;17813;0.000;0.000;2022-07-23T10:10:08;99531.53;;;26.40;42.45
31183;BME280;17813;0.000;0.000;2022-07-23T10:12:38;99531.78;;;26.23;42.71
31183;BME280;17813;0.000;0.000;2022-07-23T10:15:23;99535.78;;;26.06;43.30
31183;BME280;17813;0.000;0.000;2022-07-23T10:17:54;99529.97;;;25.94;43.50
31183;BME280;17813;0.000;0.000;2022-07-23T10:20:21;99533.84;;;25.85;43.89
31183;BME280;17813;0.000;0.000;2022-07-23T10:23:00;99530.03;;;25.65;45.73
31183;BME280;17813;0.000;0.000;2022-07-23T10:26:29;99531.38;;;26.05;45.45
31183;BME280;17813;0.000;0.000;2022-07-23T10:32:15;99553.78;;;26.71;44.63
31183;BME280;17813;0.000;0.000;2022-07-23T10:37:44;99564.19;;;26.89;44.34
31183;BME280;17813;0.000;0.000;2022-07-23T10:40:30;99559.25;;;27.27;43.26
31183;BME280;17813;0.000;0.000;2022-07-23T10:43:00;99556.34;;;27.70;42.67
31183;BME280;17813;0.000;0.000;2022-07-23T10:45:33;99561.38;;;28.34;41.60
31183;BME280;17813;0.000;0.000;2022-07-23T10:48:17;99552.19;;;29.27;40.77
31183;BME280;17813;0.000;0.000;2022-07-23T10:53:55;99545.25;;;30.34;37.54
31183;BME280;17813;0.000;0.000;2022-07-23T10:59:21;99556.44;;;31.07;36.22
31183;BME280;17813;0.000;0.000;2022-07-23T11:01:48;99557.25;;;31.14;36.02
31183;BME280;17813;0.000;0.000;2022-07-23T11:04:16;99556.84;;;30.86;35.74
31183;BME280;17813;0.000;0.000;2022-07-23T11:09:39;99563.41;;;30.53;36.40
31183;BME280;17813;0.000;0.000;2022-07-23T11:15:11;99558.19;;;29.69;37.45
31183;BME280;17813;0.000;0.000;2022-07-23T11:20:24;99553.31;;;29.77;37.74
31183;BME280;17813;0.000;0.000;2022-07-23T11:22:55;99560.31;;;30.12;37.37
31183;BME280;17813;0.000;0.000;2022-07-23T11:27:56;99565.63;;;31.19;35.77
31183;BME280;17813;0.000;0.000;2022-07-23T11:30:46;99563.25;;;31.29;35.33
31183;BME280;17813;0.000;0.000;2022-07-23T11:33:19;99559.59;;;31.54;35.70
31183;BME280;17813;0.000;0.000;2022-07-23T11:36:06;99547.13;;;31.76;34.22
31183;BME280;17813;0.000;0.000;2022-07-23T11:38:33;99553.09;;;32.03;34.33
31183;BME280;17813;0.000;0.000;2022-07-23T11:41:01;99549.78;;;31.28;34.70
31183;BME280;17813;0.000;0.000;2022-07-23T11:43:30;99547.13;;;31.15;35.85
31183;BME280;17813;0.000;0.000;2022-07-23T11:45:59;99546.06;;;31.16;35.93
31183;BME280;17813;0.000;0.000;2022-07-23T11:48:29;99546.88;;;31.23;35.48
31183;BME280;17813;0.000;0.000;2022-07-23T11:51:01;99547.00;;;29.77;37.26
31183;BME280;17813;0.000;0.000;2022-07-23T11:53:33;99540.44;;;29.85;37.30
31183;BME280;17813;0.000;0.000;2022-07-23T11:56:09;99539.97;;;30.32;36.64
31183;BME280;17813;0.000;0.000;2022-07-23T11:58:37;99533.84;;;30.68;35.96
31183;BME280;17813;0.000;0.000;2022-07-23T12:01:05;99532.00;;;30.87;35.81
31183;BME280;17813;0.000;0.000;2022-07-23T12:03:32;99521.28;;;31.04;35.12
31183;BME280;17813;0.000;0.000;2022-07-23T12:06:00;99518.13;;;30.82;35.49
31183;BME280;17813;0.000;0.000;2022-07-23T12:08:27;99522.66;;;30.95;35.70
31183;BME280;17813;0.000;0.000;2022-07-23T12:10:55;99535.13;;;31.16;35.68
31183;BME280;17813;0.000;0.000;2022-07-23T12:13:23;99522.59;;;31.63;34.97
31183;BME280;17813;0.000;0.000;2022-07-23T12:15:53;99519.09;;;32.04;34.16
31183;BME280;17813;0.000;0.000;2022-07-23T12:18:29;99510.53;;;32.42;33.53
31183;BME280;17813;0.000;0.000;2022-07-23T12:20:58;99506.88;;;32.60;33.23
31183;BME280;17813;0.000;0.000;2022-07-23T12:23:29;99505.31;;;32.52;33.26
31183;BME280;17813;0.000;0.000;2022-07-23T12:26:01;99508.91;;;32.23;33.09
31183;BME280;17813;0.000;0.000;2022-07-23T12:28:33;99510.31;;;31.65;34.25
31183;BME280;17813;0.000;0.000;2022-07-23T12:31:00;99513.75;;;31.61;34.28
31183;BME280;17813;0.000;0.000;2022-07-23T12:33:40;99512.00;;;31.48;34.34
31183;BME280;17813;0.000;0.000;2022-07-23T12:36:09;99514.91;;;31.10;34.97
31183;BME280;17813;0.000;0.000;2022-07-23T12:38:51;99508.41;;;30.86;35.67
31183;BME280;17813;0.000;0.000;2022-07-23T12:41:18;99504.75;;;30.74;35.28
31183;BME280;17813;0.000;0.000;2022-07-23T12:43:46;99508.53;;;30.73;35.68
31183;BME280;17813;0.000;0.000;2022-07-23T12:46:20;99507.09;;;30.39;36.66
31183;BME280;17813;0.000;0.000;2022-07-23T12:51:27;99513.91;;;30.30;36.09
31183;BME280;17813;0.000;0.000;2022-07-23T12:53:58;99500.38;;;30.10;36.96
31183;BME280;17813;0.000;0.000;2022-07-23T12:56:34;99517.44;;;30.05;36.99
31183;BME280;17813;0.000;0.000;2022-07-23T12:59:08;99516.56;;;30.12;36.70
31183;BME280;17813;0.000;0.000;2022-07-23T13:01:42;99517.78;;;29.77;37.14
31183;BME280;17813;0.000;0.000;2022-07-23T13:04:10;99526.28;;;29.56;37.91
31183;BME280;17813;0.000;0.000;2022-07-23T13:06:59;99534.16;;;29.13;38.96
31183;BME280;17813;0.000;0.000;2022-07-23T13:09:29;99518.09;;;29.50;38.27
31183;BME280;17813;0.000;0.000;2022-07-23T13:12:00;99520.66;;;29.44;38.55
31183;BME280;17813;0.000;0.000;2022-07-23T13:14:43;99523.38;;;29.44;38.34
31183;BME280;17813;0.000;0.000;2022-07-23T13:17:11;99524.41;;;29.37;38.26
31183;BME280;17813;0.000;0.000;2022-07-23T13:19:38;99522.09;;;29.54;38.51
31183;BME280;17813;0.000;0.000;2022-07-23T13:22:06;99520.13;;;29.67;37.72
31183;BME280;17813;0.000;0.000;2022-07-23T13:24:32;99526.31;;;29.43;38.21
31183;BME280;17813;0.000;0.000;2022-07-23T13:27:06;99527.44;;;29.09;39.13
31183;BME280;17813;0.000;0.000;2022-07-23T13:29:34;99526.56;;;29.22;39.61
31183;BME280;17813;0.000;0.000;2022-07-23T13:32:01;99522.09;;;29.40;39.33
31183;BME280;17813;0.000;0.000;2022-07-23T13:34:28;99524.34;;;29.63;38.76
31183;BME280;17813;0.000;0.000;2022-07-23T13:36:55;99518.06;;;29.56;38.59
31183;BME280;17813;0.000;0.000;2022-07-23T13:39:22;99517.25;;;29.49;39.20
31183;BME280;17813;0.000;0.000;2022-07-23T13:41:49;99505.31;;;29.30;39.27
31183;BME280;17813;0.000;0.000;2022-07-23T13:44:16;99513.53;;;29.24;39.60
31183;BME280;17813;0.000;0.000;2022-07-23T13:46:43;99522.63;;;28.98;39.87
31183;BME280;17813;0.000;0.000;2022-07-23T13:49:10;99518.44;;;28.89;40.24
31183;BME280;17813;0.000;0.000;2022-07-23T13:51:37;99520.50;;;29.06;39.96
31183;BME280;17813;0.000;0.000;2022-07-23T13:54:04;99518.19;;;29.10;40.39
31183;BME280;17813;0.000;0.000;2022-07-23T13:56:32;99525.91;;;29.26;39.63
31183;BME280;17813;0.000;0.000;2022-07-23T13:58:58;99530.72;;;29.37;39.51